createdAt,value
2023-03-02T00:01:11.836Z,79.54
2023-03-02T00:05:08.900Z,79.56
2023-03-02T00:10:09.066Z,79.54
2023-03-02T00:15:08.768Z,79.56
2023-03-02T00:20:08.809Z,79.58
2023-03-02T00:25:08.840Z,79.57
2023-03-02T00:30:08.912Z,79.58
2023-03-02T00:35:08.953Z,79.58
2023-03-02T00:40:07.976Z,79.58
2023-03-02T00:45:08.076Z,79.58
2023-03-02T00:50:08.130Z,79.59
2023-03-02T00:55:08.172Z,79.59
2023-03-02T01:00:08.271Z,79.59
2023-03-02T01:05:08.774Z,79.6
2023-03-02T01:10:08.792Z,79.63
2023-03-02T01:15:08.833Z,79.63
2023-03-02T01:20:08.922Z,79.63
2023-03-02T01:25:08.985Z,79.63
2023-03-02T01:30:08.052Z,79.62
2023-03-02T01:35:08.224Z,79.64
2023-03-02T01:40:08.280Z,79.66
2023-03-02T01:45:08.327Z,79.66
2023-03-02T01:50:08.381Z,79.67
2023-03-02T01:55:08.445Z,79.67
2023-03-02T02:00:08.468Z,79.67
2023-03-02T02:05:08.540Z,79.69
2023-03-02T02:10:08.590Z,79.7
2023-03-02T02:15:08.652Z,79.69
2023-03-02T02:20:08.718Z,79.69
2023-03-02T02:25:08.716Z,79.71
2023-03-02T02:30:08.758Z,79.73
2023-03-02T02:35:08.844Z,79.72
2023-03-02T02:40:08.906Z,79.72
2023-03-02T02:45:08.980Z,79.72
2023-03-02T02:50:08.111Z,79.74
2023-03-02T02:55:08.175Z,79.74
2023-03-02T03:00:08.225Z,79.76
2023-03-02T03:05:08.284Z,79.76
2023-03-02T03:10:18.358Z,79.78
2023-03-02T03:15:08.412Z,79.76
2023-03-02T03:20:08.483Z,79.77
2023-03-02T03:25:08.538Z,79.77
2023-03-02T03:30:08.541Z,79.76
2023-03-02T03:35:08.721Z,79.77
2023-03-02T03:40:08.827Z,79.76
2023-03-02T03:45:08.892Z,79.8
2023-03-02T03:50:09.001Z,79.78
2023-03-02T03:55:08.024Z,79.79
2023-03-02T04:00:08.098Z,79.78
2023-03-02T04:05:08.154Z,79.79
2023-03-02T04:10:08.196Z,79.79
2023-03-02T04:15:08.260Z,79.82
2023-03-02T04:20:08.378Z,79.82
2023-03-02T04:25:08.431Z,79.81
2023-03-02T04:30:08.462Z,79.83
2023-03-02T04:35:08.536Z,79.82
2023-03-02T04:40:08.575Z,79.82
2023-03-02T04:45:08.758Z,79.8
2023-03-02T04:50:08.781Z,79.79
2023-03-02T04:55:08.886Z,79.8
2023-03-02T05:00:08.905Z,79.81
2023-03-02T05:05:03.213Z,79.82
2023-03-02T05:10:02.428Z,79.82
2023-03-02T05:15:02.869Z,79.82
2023-03-02T05:20:03.295Z,79.82
2023-03-02T05:25:04.486Z,79.86
2023-03-02T05:30:03.431Z,79.88
2023-03-02T05:35:02.974Z,79.86
2023-03-02T05:40:04.713Z,79.87
2023-03-02T05:45:04.137Z,79.88
2023-03-02T05:50:02.764Z,79.87
2023-03-02T05:55:04.134Z,79.99
2023-03-02T06:00:02.835Z,80.04
2023-03-02T06:05:04.028Z,80.04
2023-03-02T06:10:02.491Z,80.04
2023-03-02T06:15:03.465Z,80.07
2023-03-02T06:20:02.854Z,80.08
2023-03-02T06:25:03.677Z,80.07
2023-03-02T06:30:03.006Z,80.06
2023-03-02T06:35:02.353Z,80.04
2023-03-02T06:40:03.166Z,80.06
2023-03-02T06:45:03.382Z,80.09
2023-03-02T06:50:02.642Z,80.08
2023-03-02T06:55:03.855Z,80.11
2023-03-02T07:00:03.920Z,80.14
2023-03-02T07:05:04.992Z,80.14
2023-03-02T07:10:03.242Z,80.16
2023-03-02T07:15:04.021Z,80.2
2023-03-02T07:20:02.857Z,80.19
2023-03-02T07:25:04.018Z,80.24
2023-03-02T07:30:03.735Z,80.27
2023-03-02T07:35:04.364Z,80.29
2023-03-02T07:40:02.531Z,80.34
2023-03-02T07:45:03.789Z,80.32
2023-03-02T07:50:04.896Z,80.34
2023-03-02T07:55:05.309Z,80.34
2023-03-02T08:00:02.567Z,80.31
2023-03-02T08:05:03.482Z,80.33
2023-03-02T08:10:03.069Z,80.35
2023-03-02T08:15:05.024Z,80.3
2023-03-02T08:20:03.558Z,80.32
2023-03-02T08:25:04.527Z,80.33
2023-03-02T08:30:04.813Z,80.31
2023-03-02T08:35:03.869Z,80.3
2023-03-02T08:40:03.754Z,80.33
2023-03-02T08:45:03.157Z,80.29
2023-03-02T08:50:02.735Z,80.25
2023-03-02T08:55:04.263Z,80.24
2023-03-02T09:00:04.125Z,80.21
2023-03-02T09:05:05.092Z,80.17
2023-03-02T09:10:02.393Z,80.16
2023-03-02T09:15:03.928Z,80.15
2023-03-02T09:20:02.739Z,80.1
2023-03-02T09:25:04.491Z,80.09
2023-03-02T09:30:03.264Z,80.08
2023-03-02T09:35:03.383Z,80.06
2023-03-02T09:40:02.782Z,80.04
2023-03-02T09:45:04.164Z,79.99
2023-03-02T09:50:02.966Z,79.98
2023-03-02T09:55:03.713Z,79.94
2023-03-02T10:00:12.883Z,79.94
2023-03-02T10:05:02.403Z,79.91
2023-03-02T10:10:04.336Z,79.88
2023-03-02T10:15:03.497Z,79.83
2023-03-02T10:20:03.467Z,79.82
2023-03-02T10:25:03.944Z,79.76
2023-03-02T10:30:02.491Z,79.72
2023-03-02T10:35:03.395Z,79.69
2023-03-02T10:40:02.975Z,79.65
2023-03-02T10:45:03.582Z,79.6
2023-03-02T10:50:03.856Z,79.59
2023-03-02T10:55:04.945Z,79.52
2023-03-02T11:00:02.175Z,79.48
2023-03-02T11:05:03.137Z,79.43
2023-03-02T11:10:03.412Z,79.42
2023-03-02T11:15:02.980Z,79.35
2023-03-02T11:25:13.013Z,79.24
2023-03-02T11:30:06.841Z,79.22
2023-03-02T11:35:17.121Z,79.13
2023-03-02T11:40:02.485Z,79.1
2023-03-02T11:45:04.292Z,79.06
2023-03-02T11:50:03.147Z,79.0
2023-03-02T11:55:03.242Z,78.96
2023-03-02T12:00:04.021Z,78.92
2023-03-02T12:05:03.168Z,78.9
2023-03-02T12:10:07.717Z,78.87
2023-03-02T12:15:04.137Z,78.81
2023-03-02T12:20:12.558Z,78.79
2023-03-02T12:25:05.548Z,78.78
2023-03-02T12:30:11.176Z,78.73
2023-03-02T12:35:12.405Z,78.68
2023-03-02T12:40:04.123Z,78.67
2023-03-02T12:45:12.974Z,78.62
2023-03-02T12:50:06.521Z,78.61
2023-03-02T12:55:03.536Z,78.56
2023-03-02T13:00:13.433Z,78.52
2023-03-02T13:05:03.752Z,78.47
2023-03-02T13:10:04.754Z,78.44
2023-03-02T13:15:10.395Z,78.41
2023-03-02T13:20:03.979Z,78.4
2023-03-02T13:25:10.889Z,78.38
2023-03-02T13:30:04.645Z,78.37
2023-03-02T13:35:03.972Z,78.32
2023-03-02T13:40:02.763Z,78.31
2023-03-02T13:45:04.583Z,78.28
2023-03-02T13:50:03.764Z,78.27
2023-03-02T13:55:04.018Z,78.26
2023-03-02T14:00:03.478Z,78.22
2023-03-02T14:05:04.818Z,78.21
2023-03-02T14:10:04.285Z,78.17
2023-03-02T14:15:04.638Z,78.18
2023-03-02T14:20:03.197Z,78.2
2023-03-02T14:25:04.672Z,78.17
2023-03-02T14:30:03.640Z,78.15
2023-03-02T14:35:04.471Z,78.12
2023-03-02T14:40:14.562Z,78.12
2023-03-02T14:45:04.045Z,78.15
2023-03-02T14:50:03.443Z,78.15
2023-03-02T14:55:14.057Z,78.15
2023-03-02T15:00:04.007Z,78.18
2023-03-02T15:05:02.842Z,78.18
2023-03-02T15:10:05.444Z,78.17
2023-03-02T15:15:03.596Z,78.17
2023-03-02T15:20:03.321Z,78.15
2023-03-02T15:25:05.850Z,78.16
2023-03-02T15:30:03.521Z,78.15
2023-03-02T15:35:05.719Z,78.14
2023-03-02T15:40:06.375Z,78.13
2023-03-02T15:45:05.811Z,78.12
2023-03-02T15:50:13.059Z,78.12
2023-03-02T15:55:08.483Z,78.1
2023-03-02T16:00:05.218Z,78.09
2023-03-02T16:05:03.820Z,78.08
2023-03-02T16:10:11.561Z,78.08
2023-03-02T16:15:03.435Z,78.06
2023-03-02T16:20:02.999Z,78.05
2023-03-02T16:25:02.716Z,78.06
2023-03-02T16:30:04.333Z,78.02
2023-03-02T16:35:02.937Z,77.97
2023-03-02T16:40:02.655Z,77.95
2023-03-02T16:45:05.711Z,77.9
2023-03-02T16:50:03.307Z,77.87
2023-03-02T16:55:03.849Z,77.83
2023-03-02T17:00:17.674Z,77.82
2023-03-02T17:05:04.356Z,77.79
2023-03-02T17:10:03.724Z,77.79
2023-03-02T17:15:18.033Z,77.92
2023-03-02T17:20:07.018Z,77.95
2023-03-02T17:25:12.936Z,77.99
2023-03-02T17:30:05.265Z,77.99
2023-03-02T17:35:13.706Z,78.03
2023-03-02T17:40:08.918Z,78.08
2023-03-02T17:45:04.906Z,78.1
2023-03-02T17:50:04.270Z,78.12
2023-03-02T17:55:03.671Z,78.15
2023-03-02T18:00:13.505Z,78.16
2023-03-02T18:05:03.717Z,78.16
2023-03-02T18:10:11.072Z,78.2
2023-03-02T18:15:03.814Z,78.23
2023-03-02T18:20:04.669Z,78.25
2023-03-02T18:25:04.719Z,78.29
2023-03-02T18:30:04.988Z,78.29
2023-03-02T18:35:02.976Z,78.32
2023-03-02T18:40:04.877Z,78.35
2023-03-02T18:45:06.528Z,78.35
2023-03-02T18:50:03.408Z,78.4
2023-03-02T18:55:03.396Z,78.44
2023-03-02T19:00:04.157Z,78.45
2023-03-02T19:05:02.915Z,78.48
2023-03-02T19:10:06.386Z,78.5
2023-03-02T19:15:03.623Z,78.51
2023-03-02T19:20:04.634Z,78.55
2023-03-02T19:25:03.017Z,78.58
2023-03-02T19:30:07.241Z,78.61
2023-03-02T19:35:03.741Z,78.63
2023-03-02T19:40:06.323Z,78.65
2023-03-02T19:45:02.857Z,78.67
2023-03-02T19:50:04.863Z,78.71
2023-03-02T19:55:04.829Z,78.72
2023-03-02T20:00:05.953Z,78.74
2023-03-02T20:05:03.713Z,78.77
2023-03-02T20:10:04.819Z,78.79
2023-03-02T20:15:05.604Z,78.78
2023-03-02T20:20:05.958Z,78.82
2023-03-02T20:25:04.481Z,78.86
2023-03-02T20:30:03.361Z,78.87
2023-03-02T20:35:04.576Z,78.88
2023-03-02T20:40:03.433Z,78.91
2023-03-02T20:45:05.489Z,78.93
2023-03-02T20:50:05.137Z,78.95
2023-03-02T20:55:04.123Z,78.96
2023-03-02T21:00:04.319Z,78.98
2023-03-02T21:05:04.242Z,79.0
2023-03-02T21:10:02.697Z,79.01
2023-03-02T21:15:07.987Z,79.02
2023-03-02T21:20:03.231Z,79.06
2023-03-02T21:25:04.692Z,79.07
2023-03-02T21:30:07.781Z,79.08
2023-03-02T21:35:08.417Z,79.07
2023-03-02T21:40:04.568Z,79.1
2023-03-02T21:45:05.053Z,79.09
2023-03-02T21:50:14.329Z,79.11
2023-03-02T21:55:03.134Z,79.12
2023-03-02T22:00:05.058Z,79.17
2023-03-02T22:05:15.048Z,79.18
2023-03-02T22:10:08.118Z,79.21
2023-03-02T22:15:08.245Z,79.2
2023-03-02T22:20:08.331Z,79.21
2023-03-02T22:25:08.357Z,79.24
2023-03-02T22:30:08.382Z,79.26
2023-03-02T22:35:17.112Z,79.27
2023-03-02T22:40:18.243Z,79.33
2023-03-02T22:45:08.296Z,79.31
2023-03-02T22:50:08.351Z,79.33
2023-03-02T22:55:08.356Z,79.36
2023-03-02T23:00:08.458Z,79.36
2023-03-02T23:05:08.520Z,79.39
2023-03-02T23:10:08.560Z,79.35
2023-03-02T23:15:08.609Z,79.39
2023-03-02T23:20:08.674Z,79.39
2023-03-02T23:25:08.740Z,79.41
2023-03-02T23:30:08.814Z,79.38
2023-03-02T23:35:08.840Z,79.39
2023-03-02T23:40:08.848Z,79.42
2023-03-02T23:45:08.922Z,79.42
2023-03-02T23:50:08.004Z,79.42
2023-03-02T23:55:08.142Z,79.41
